createdAt,value
2022-11-07T00:00:29.912Z,2.87
2022-11-07T00:02:58.352Z,2.73
2022-11-07T00:05:26.764Z,2.70
2022-11-07T00:07:55.967Z,2.30
2022-11-07T00:10:26.066Z,3.20
2022-11-07T00:12:54.865Z,1.93
2022-11-07T00:15:24.031Z,2.63
2022-11-07T00:17:51.989Z,1.93
2022-11-07T00:20:22.012Z,2.10
2022-11-07T00:22:50.295Z,3.37
2022-11-07T00:25:18.936Z,1.97
2022-11-07T00:27:48.599Z,3.57
2022-11-07T00:30:17.349Z,1.50
2022-11-07T00:32:45.994Z,4.43
2022-11-07T00:35:14.615Z,5.73
2022-11-07T00:37:43.346Z,2.23
2022-11-07T00:40:12.153Z,1.63
2022-11-07T00:42:41.356Z,2.27
2022-11-07T00:45:13.474Z,3.20
2022-11-07T00:47:41.760Z,1.50
2022-11-07T00:50:10.708Z,4.40
2022-11-07T00:52:39.381Z,1.50
2022-11-07T00:55:08.627Z,2.10
2022-11-07T00:57:37.596Z,2.67
2022-11-07T01:00:26.734Z,1.67
2022-11-07T01:03:17.717Z,2.80
2022-11-07T01:05:57.100Z,2.97
2022-11-07T01:08:25.925Z,2.70
2022-11-07T01:10:54.626Z,1.67
2022-11-07T01:13:23.462Z,2.80
2022-11-07T01:15:53.797Z,2.00
2022-11-07T01:18:22.590Z,2.63
2022-11-07T01:20:51.480Z,2.67
2022-11-07T01:23:20.061Z,3.87
2022-11-07T01:25:47.980Z,5.17
2022-11-07T05:00:10.624Z,6.47
2022-11-07T05:20:59.959Z,4.47
2022-11-07T05:28:56.295Z,7.43
2022-11-07T05:40:14.352Z,8.30
2022-11-07T05:54:52.480Z,10.07
2022-11-07T06:11:25.998Z,8.33
2022-11-07T06:16:37.502Z,9.63
2022-11-07T06:19:05.412Z,11.47
2022-11-07T06:21:33.230Z,11.23
2022-11-07T06:24:00.962Z,10.60
2022-11-07T06:26:30.103Z,8.40
2022-11-07T09:17:32.984Z,7.82
2022-11-07T09:20:02.026Z,7.93
2022-11-07T09:22:29.867Z,2.63
2022-11-07T09:24:57.881Z,5.32
2022-11-07T09:27:25.988Z,4.03
2022-11-07T09:29:53.894Z,4.05
2022-11-07T09:32:43.407Z,3.63
2022-11-07T09:35:11.793Z,6.57
2022-11-07T09:37:40.031Z,6.15
2022-11-07T09:40:23.267Z,3.28
2022-11-07T09:43:02.727Z,6.05
2022-11-07T09:45:32.135Z,8.68
2022-11-07T09:48:06.921Z,4.18
2022-11-07T09:50:41.546Z,4.28
2022-11-07T09:53:18.114Z,3.78
2022-11-07T09:55:52.383Z,2.83
2022-11-07T09:58:26.914Z,5.28
2022-11-07T10:00:58.484Z,7.65
2022-11-07T10:03:26.487Z,7.32
2022-11-07T10:06:04.091Z,5.43
2022-11-07T10:08:40.021Z,3.83
2022-11-07T10:11:14.667Z,5.53
2022-11-07T10:14:00.192Z,3.90
2022-11-07T10:16:40.217Z,4.20
2022-11-07T10:19:21.079Z,5.72
2022-11-07T10:22:08.354Z,5.50
2022-11-07T10:24:55.139Z,3.53
2022-11-07T10:27:23.484Z,4.20
2022-11-07T10:29:54.643Z,4.82
2022-11-07T10:32:27.172Z,3.85
2022-11-07T10:35:07.222Z,4.53
2022-11-07T10:37:36.518Z,4.68
2022-11-07T10:40:15.696Z,5.55
2022-11-07T10:42:45.598Z,3.47
2022-11-07T10:45:15.557Z,4.60
2022-11-07T10:47:44.413Z,3.85
2022-11-07T10:50:20.266Z,5.03
2022-11-07T10:52:55.418Z,4.72
2022-11-07T10:55:24.930Z,2.75
2022-11-07T10:57:57.355Z,4.43
2022-11-07T11:00:34.610Z,4.35
2022-11-07T11:03:02.922Z,4.50
2022-11-07T11:05:43.409Z,3.40
2022-11-07T11:08:18.345Z,6.10
2022-11-07T11:10:47.131Z,5.75
2022-11-07T11:13:28.470Z,5.55
2022-11-07T11:16:04.277Z,2.85
2022-11-07T11:18:33.912Z,2.58
2022-11-07T11:21:03.692Z,2.80
2022-11-07T11:23:42.018Z,1.85
2022-11-07T11:26:26.544Z,5.53
2022-11-07T11:29:04.586Z,3.10
2022-11-07T11:31:40.597Z,2.22
2022-11-07T11:34:14.743Z,1.63
2022-11-07T11:36:51.696Z,1.08
2022-11-07T11:39:30.395Z,1.83
2022-11-07T11:42:00.241Z,2.63
2022-11-07T11:44:36.229Z,1.92
2022-11-07T11:47:12.425Z,2.83
2022-11-07T11:49:44.901Z,2.70
2022-11-07T11:52:17.239Z,4.95
2022-11-07T11:54:47.355Z,1.00
2022-11-07T11:57:19.769Z,4.00
2022-11-07T12:00:02.436Z,1.58
2022-11-07T12:02:50.010Z,3.35
2022-11-07T12:05:30.578Z,2.30
2022-11-07T12:08:12.442Z,1.77
2022-11-07T12:10:48.821Z,1.77
2022-11-07T12:13:24.076Z,2.33
2022-11-07T12:16:04.687Z,3.97
2022-11-07T12:18:39.714Z,1.38
2022-11-07T12:21:23.712Z,1.88
2022-11-07T12:24:04.323Z,2.85
2022-11-07T12:26:41.304Z,1.38
2022-11-07T12:29:35.410Z,3.10
2022-11-07T12:32:13.872Z,3.50
2022-11-07T12:35:01.349Z,3.10
2022-11-07T12:37:43.638Z,2.08
2022-11-07T12:40:26.502Z,2.70
2022-11-07T12:43:07.097Z,6.10
2022-11-07T12:45:46.927Z,3.08
2022-11-07T12:48:48.524Z,1.85
2022-11-07T12:51:27.849Z,2.38
2022-11-07T12:54:03.796Z,2.58
2022-11-07T12:56:34.443Z,4.35
2022-11-07T12:59:11.544Z,2.50
2022-11-07T13:01:45.160Z,2.97
2022-11-07T13:04:20.619Z,3.50
2022-11-07T13:06:54.914Z,3.08
2022-11-07T13:09:30.467Z,4.10
2022-11-07T13:12:09.735Z,2.85
2022-11-07T13:14:43.453Z,2.35
2022-11-07T13:17:18.198Z,4.90
2022-11-07T13:19:59.646Z,4.78
2022-11-07T13:22:34.484Z,3.40
2022-11-07T13:25:24.301Z,2.65
2022-11-07T13:28:08.215Z,3.85
2022-11-07T13:30:39.937Z,5.60
2022-11-07T13:33:23.902Z,4.22
2022-11-07T13:35:55.317Z,2.25
2022-11-07T13:38:25.349Z,3.25
2022-11-07T13:40:58.441Z,2.13
2022-11-07T13:43:28.576Z,3.53
2022-11-07T13:45:59.996Z,4.07
2022-11-07T13:48:32.373Z,2.10
2022-11-07T13:51:06.488Z,0.93
2022-11-07T13:53:40.060Z,1.10
2022-11-07T13:56:17.330Z,2.28
2022-11-07T13:58:47.164Z,1.88
2022-11-07T14:04:24.384Z,2.35
2022-11-07T14:09:36.218Z,2.40
2022-11-07T14:12:04.466Z,2.63
2022-11-07T14:14:32.449Z,2.42
2022-11-07T14:17:02.007Z,1.92
2022-11-07T14:19:44.089Z,2.45
2022-11-07T14:22:24.400Z,1.13
2022-11-07T14:24:54.208Z,1.35
2022-11-07T14:27:24.896Z,2.60
2022-11-07T14:29:53.832Z,1.50
2022-11-07T14:32:22.737Z,1.17
2022-11-07T14:34:54.873Z,2.65
2022-11-07T14:37:24.692Z,1.40
2022-11-07T14:39:53.620Z,1.95
2022-11-07T14:42:24.055Z,2.00
2022-11-07T14:44:55.998Z,1.98
2022-11-07T14:47:28.342Z,2.83
2022-11-07T14:49:59.133Z,2.42
2022-11-07T14:52:33.823Z,3.40
2022-11-07T14:55:08.036Z,3.67
2022-11-07T14:57:38.471Z,2.78
2022-11-07T15:00:07.405Z,1.98
2022-11-07T15:02:36.060Z,2.72
2022-11-07T15:05:10.969Z,3.60
2022-11-07T15:07:49.829Z,4.32
2022-11-07T15:10:28.125Z,4.18
2022-11-07T15:12:58.438Z,2.40
2022-11-07T15:15:28.336Z,2.78
2022-11-07T15:18:00.173Z,3.30
2022-11-07T15:23:35.343Z,5.53
2022-11-07T15:26:12.445Z,7.03
2022-11-07T15:29:15.393Z,3.60
2022-11-07T15:31:48.708Z,2.03
2022-11-07T15:34:33.641Z,3.25
2022-11-07T15:37:12.121Z,6.90
2022-11-07T15:39:41.757Z,4.05
2022-11-07T15:42:09.845Z,3.20
2022-11-07T15:44:38.326Z,3.88
2022-11-07T15:47:07.387Z,2.55
2022-11-07T15:49:36.042Z,3.35
2022-11-07T15:52:04.060Z,3.95
2022-11-07T15:54:32.272Z,2.85
2022-11-07T15:57:05.496Z,3.35
2022-11-07T15:59:36.872Z,9.75
2022-11-07T16:02:05.730Z,5.45
2022-11-07T16:04:39.307Z,8.90
2022-11-07T16:07:12.759Z,6.00
2022-11-07T16:09:40.742Z,5.28
2022-11-07T16:12:14.991Z,4.32
2022-11-07T16:14:44.637Z,4.03
2022-11-07T16:17:14.395Z,5.47
2022-11-07T16:19:42.681Z,3.15
2022-11-07T16:22:11.530Z,6.10
2022-11-07T16:24:39.549Z,4.47
2022-11-07T16:27:08.205Z,6.65
2022-11-07T16:29:44.402Z,6.22
2022-11-07T16:32:37.927Z,6.55
2022-11-07T16:35:10.001Z,7.63
2022-11-07T16:37:43.518Z,8.02
2022-11-07T16:40:36.486Z,4.05
2022-11-07T16:43:06.014Z,5.75
2022-11-07T16:45:52.872Z,4.13
2022-11-07T16:48:50.590Z,3.97
2022-11-07T16:51:22.366Z,5.57
2022-11-07T16:53:50.535Z,5.97
2022-11-07T16:56:26.011Z,3.53
2022-11-07T16:58:55.371Z,5.82
2022-11-07T17:01:26.472Z,6.32
2022-11-07T17:03:55.771Z,5.25
2022-11-07T17:06:28.779Z,7.05
2022-11-07T17:09:05.004Z,7.60
2022-11-07T17:11:37.747Z,6.43
2022-11-07T17:17:18.469Z,7.60
2022-11-07T17:20:34.340Z,5.97
2022-11-07T17:23:07.126Z,7.63
2022-11-07T17:26:09.896Z,6.68
2022-11-07T17:28:38.028Z,3.97
2022-11-07T17:31:06.474Z,9.02
2022-11-07T17:33:36.530Z,5.68
2022-11-07T17:36:05.876Z,5.53
2022-11-07T17:38:34.724Z,5.35
2022-11-07T17:44:18.352Z,8.43
2022-11-07T17:46:51.026Z,7.10
2022-11-07T17:52:57.113Z,6.25
2022-11-07T17:56:15.910Z,7.40
2022-11-07T17:58:59.467Z,4.82
2022-11-07T18:01:36.145Z,10.48
2022-11-07T18:04:16.245Z,8.18
2022-11-07T18:06:49.693Z,11.88
2022-11-07T18:09:49.681Z,6.32
2022-11-07T18:12:18.223Z,6.97
2022-11-07T18:14:46.665Z,6.65
2022-11-07T18:17:16.563Z,7.38
2022-11-07T18:20:02.435Z,11.07
2022-11-07T18:22:56.052Z,8.18
2022-11-07T18:33:04.312Z,8.38
2022-11-07T18:35:41.497Z,11.60
2022-11-07T18:38:35.974Z,10.50
2022-11-07T18:41:28.205Z,7.72
2022-11-07T18:44:05.045Z,8.85
2022-11-07T18:49:46.162Z,13.13
2022-11-07T18:52:22.230Z,10.38
2022-11-07T18:54:54.650Z,9.93
2022-11-07T18:57:26.469Z,8.32
2022-11-07T18:59:54.816Z,14.52
2022-11-07T19:02:25.572Z,9.38
2022-11-07T19:04:53.967Z,9.02
2022-11-07T19:07:27.092Z,10.10
2022-11-07T19:09:57.119Z,7.72
2022-11-07T19:12:27.418Z,9.30
2022-11-07T19:14:56.234Z,9.70
2022-11-07T19:17:27.848Z,10.55
2022-11-07T19:20:11.112Z,10.32
2022-11-07T19:22:39.514Z,11.55
2022-11-07T19:25:10.250Z,11.48
2022-11-07T19:27:38.223Z,11.00
2022-11-07T19:30:11.204Z,7.28
2022-11-07T19:35:59.474Z,9.77
2022-11-07T19:45:48.625Z,20.25
2022-11-07T19:48:18.938Z,12.23
2022-11-07T19:50:50.051Z,12.40
2022-11-07T19:53:21.825Z,11.98
2022-11-07T19:55:51.736Z,6.75
2022-11-07T19:58:24.742Z,8.63
2022-11-07T20:01:02.110Z,9.18
2022-11-07T20:03:31.955Z,17.95
2022-11-07T20:09:04.351Z,11.05
2022-11-07T20:11:32.958Z,9.30
2022-11-07T20:14:03.648Z,7.60
2022-11-07T20:16:34.707Z,10.73
2022-11-07T20:19:03.592Z,9.02
2022-11-07T20:21:33.896Z,8.43
2022-11-07T20:24:02.899Z,11.00
2022-11-07T20:26:33.314Z,10.03
2022-11-07T20:29:01.672Z,9.52
2022-11-07T20:31:36.985Z,11.03
2022-11-07T20:34:10.374Z,6.23
2022-11-07T20:36:40.264Z,7.82
2022-11-07T20:39:10.156Z,11.37
2022-11-07T20:41:42.461Z,12.67
2022-11-07T20:44:15.203Z,11.43
2022-11-07T20:46:47.953Z,10.10
2022-11-07T20:49:25.267Z,7.50
2022-11-07T20:51:56.615Z,11.63
2022-11-07T20:54:32.297Z,6.30
2022-11-07T20:57:03.205Z,10.60
2022-11-07T20:59:32.863Z,8.43
2022-11-07T21:02:04.256Z,11.00
2022-11-07T21:05:10.843Z,11.43
2022-11-07T21:07:32.063Z,6.60
2022-11-07T21:10:02.613Z,7.20
2022-11-07T21:12:33.901Z,11.00
2022-11-07T21:15:04.329Z,8.07
2022-11-07T21:17:35.573Z,11.00
2022-11-07T21:20:09.343Z,11.23
2022-11-07T21:22:42.529Z,9.67
2022-11-07T21:25:13.051Z,9.67
2022-11-07T21:27:42.082Z,9.20
2022-11-07T21:30:15.368Z,14.33
2022-11-07T21:32:45.564Z,12.30
2022-11-07T21:35:19.994Z,8.83
2022-11-07T21:37:49.954Z,6.60
2022-11-07T21:40:20.186Z,7.93
2022-11-07T21:42:48.666Z,16.80
2022-11-07T21:45:17.423Z,15.40
2022-11-07T21:47:46.141Z,16.40
2022-11-07T21:50:43.089Z,18.77
2022-11-07T21:53:05.827Z,26.77
2022-11-07T21:55:36.395Z,22.37
2022-11-07T21:58:05.262Z,22.77
2022-11-07T22:00:37.256Z,15.23
2022-11-07T22:03:06.274Z,12.43
2022-11-07T22:05:39.766Z,53.90
2022-11-07T22:08:07.953Z,32.17
2022-11-07T22:10:35.899Z,28.67
2022-11-07T22:13:05.340Z,11.70
2022-11-07T22:15:33.609Z,20.57
2022-11-07T22:18:01.868Z,30.70
2022-11-07T22:20:29.730Z,15.73
2022-11-07T22:22:59.096Z,14.60
2022-11-07T22:25:26.985Z,14.03
2022-11-07T22:27:55.278Z,20.50
2022-11-07T22:30:23.348Z,14.90
2022-11-07T22:32:51.898Z,13.10
2022-11-07T22:35:19.918Z,8.27
2022-11-07T22:37:48.121Z,5.47
2022-11-07T22:40:20.490Z,13.53
2022-11-07T22:42:49.003Z,13.70
2022-11-07T22:45:17.342Z,11.40
2022-11-07T22:47:45.542Z,7.73
2022-11-07T22:50:13.944Z,8.37
2022-11-07T22:52:42.591Z,12.97
2022-11-07T22:55:11.524Z,14.63
2022-11-07T22:57:43.273Z,9.97
2022-11-07T23:00:21.310Z,11.70
2022-11-07T23:02:50.434Z,10.97
2022-11-07T23:05:19.393Z,11.27
2022-11-07T23:07:51.274Z,12.13
2022-11-07T23:10:19.835Z,12.90
2022-11-07T23:12:49.618Z,11.37
2022-11-07T23:15:18.324Z,8.60
2022-11-07T23:17:46.606Z,12.73
2022-11-07T23:20:35.246Z,10.20
2022-11-07T23:23:05.129Z,11.43
2022-11-07T23:25:33.263Z,9.07
2022-11-07T23:28:04.180Z,10.93
2022-11-07T23:30:33.591Z,12.57
2022-11-07T23:33:02.290Z,10.27
2022-11-07T23:35:32.587Z,7.17
2022-11-07T23:38:00.671Z,15.50
2022-11-07T23:40:28.831Z,12.23
2022-11-07T23:42:56.783Z,14.87
2022-11-07T23:45:43.679Z,12.73
2022-11-07T23:48:31.076Z,9.33
2022-11-07T23:51:03.408Z,12.37
2022-11-07T23:53:50.551Z,9.73
2022-11-07T23:56:19.032Z,12.03
2022-11-07T23:59:04.820Z,13.37
